Main page
METAR-TAF:

METAR-TAF

Airports :

Palacios Municipal Airport

Palacios, Texas, United States

latitude: 28-43-39N, longitude: 096-15-03W, elevation: 16 ft

Current weather observation

The report was made 1 hour and 19 minutes ago, at 12:53 UTC
Wind 12 mph from the Southeast
Temperature 84°F
Humidity 79%
Pressure 29.81 in. Hg
Visibility: 10 miles
Few clouds at a height of 2600 ft
Scattered clouds at a height of 3100 ft

METAR: KPSX 171253Z AUTO 14010KT 10SM FEW026 SCT031 29/25 A2981 RMK AO2 SLP092 T02940250

Time: 09:12 (14:12 UTC)


TAF: missing

Weather observations and forecasts of more than 4000 airports (METAR and TAF reports).

The available stations are represented by yellow and red dots on the map.

Hover mouse over dot to see the name of the station.

Then click to see weather observations and forecasts.

To change the map : click on the green buttons with a black cross to zoom in, on the green button with a dash to zoom out, or on the green arrows for adjacent maps.


METAR-TAF: